sensor_id;sensor_type;location;lat;lon;timestamp;pressure;altitude;pressure_sealevel;temperature;humidity
48035;BME280;33812;46.480;6.834;2023-03-01T00:01:56;93788.31;;;20.93;32.56
48035;BME280;33812;46.480;6.834;2023-03-01T00:05:57;93792.66;;;20.94;32.35
48035;BME280;33812;46.480;6.834;2023-03-01T00:09:59;93791.44;;;20.95;32.42
48035;BME280;33812;46.480;6.834;2023-03-01T00:14:03;93792.97;;;20.96;32.45
48035;BME280;33812;46.480;6.834;2023-03-01T00:18:07;93783.16;;;20.95;32.34
48035;BME280;33812;46.480;6.834;2023-03-01T00:22:08;93788.75;;;20.92;32.28
48035;BME280;33812;46.480;6.834;2023-03-01T00:26:12;93786.34;;;20.94;32.28
48035;BME280;33812;46.480;6.834;2023-03-01T00:30:16;93776.84;;;20.95;32.12
48035;BME280;33812;46.480;6.834;2023-03-01T00:34:18;93781.59;;;20.94;32.38
48035;BME280;33812;46.480;6.834;2023-03-01T00:38:20;93780.00;;;20.93;32.22
48035;BME280;33812;46.480;6.834;2023-03-01T00:42:22;93773.03;;;20.88;32.30
48035;BME280;33812;46.480;6.834;2023-03-01T00:46:26;93771.06;;;20.89;31.76
48035;BME280;33812;46.480;6.834;2023-03-01T00:50:30;93783.66;;;20.90;32.15
48035;BME280;33812;46.480;6.834;2023-03-01T00:54:32;93776.16;;;20.90;31.93
48035;BME280;33812;46.480;6.834;2023-03-01T00:58:34;93769.84;;;20.90;31.70
48035;BME280;33812;46.480;6.834;2023-03-01T01:02:37;93773.38;;;20.90;32.01
48035;BME280;33812;46.480;6.834;2023-03-01T01:06:42;93784.09;;;20.88;31.80
48035;BME280;33812;46.480;6.834;2023-03-01T01:10:45;93776.25;;;20.87;31.91
48035;BME280;33812;46.480;6.834;2023-03-01T01:14:47;93768.31;;;20.89;31.62
48035;BME280;33812;46.480;6.834;2023-03-01T01:18:51;93773.81;;;20.89;31.98
48035;BME280;33812;46.480;6.834;2023-03-01T01:22:53;93760.44;;;20.87;31.72
48035;BME280;33812;46.480;6.834;2023-03-01T01:26:56;93757.66;;;20.87;31.62
48035;BME280;33812;46.480;6.834;2023-03-01T01:30:57;93754.59;;;20.85;31.43
48035;BME280;33812;46.480;6.834;2023-03-01T01:35:01;93755.34;;;20.86;31.67
48035;BME280;33812;46.480;6.834;2023-03-01T01:39:07;93751.03;;;20.85;31.74
48035;BME280;33812;46.480;6.834;2023-03-01T01:43:19;93746.28;;;20.85;31.49
48035;BME280;33812;46.480;6.834;2023-03-01T01:47:23;93742.75;;;20.85;31.55
48035;BME280;33812;46.480;6.834;2023-03-01T01:51:32;93745.50;;;20.85;31.80
48035;BME280;33812;46.480;6.834;2023-03-01T01:55:43;93734.47;;;20.85;31.38
48035;BME280;33812;46.480;6.834;2023-03-01T01:59:56;93734.56;;;20.81;31.78
48035;BME280;33812;46.480;6.834;2023-03-01T02:03:59;93736.88;;;20.83;31.66
48035;BME280;33812;46.480;6.834;2023-03-01T02:08:05;93735.69;;;20.84;31.51
48035;BME280;33812;46.480;6.834;2023-03-01T02:12:08;93741.22;;;20.84;31.69
48035;BME280;33812;46.480;6.834;2023-03-01T02:16:11;93738.09;;;20.82;31.44
48035;BME280;33812;46.480;6.834;2023-03-01T02:20:18;93730.91;;;20.84;31.50
48035;BME280;33812;46.480;6.834;2023-03-01T02:24:37;93733.69;;;20.84;31.62
48035;BME280;33812;46.480;6.834;2023-03-01T02:28:44;93721.53;;;20.82;31.54
48035;BME280;33812;46.480;6.834;2023-03-01T02:32:47;93717.22;;;20.81;31.57
48035;BME280;33812;46.480;6.834;2023-03-01T02:36:53;93716.00;;;20.82;31.37
48035;BME280;33812;46.480;6.834;2023-03-01T02:40:56;93708.16;;;20.80;31.53
48035;BME280;33812;46.480;6.834;2023-03-01T02:44:59;93699.88;;;20.80;31.58
48035;BME280;33812;46.480;6.834;2023-03-01T02:49:01;93699.09;;;20.80;31.45
48035;BME280;33812;46.480;6.834;2023-03-01T02:53:08;93699.44;;;20.82;31.30
48035;BME280;33812;46.480;6.834;2023-03-01T02:57:12;93699.09;;;20.80;31.50
48035;BME280;33812;46.480;6.834;2023-03-01T03:01:15;93692.03;;;20.78;31.18
48035;BME280;33812;46.480;6.834;2023-03-01T03:05:19;93682.53;;;20.80;31.23
48035;BME280;33812;46.480;6.834;2023-03-01T03:09:21;93673.91;;;20.77;31.31
48035;BME280;33812;46.480;6.834;2023-03-01T03:13:23;93671.47;;;20.80;31.17
48035;BME280;33812;46.480;6.834;2023-03-01T03:17:30;93669.59;;;20.76;31.23
48035;BME280;33812;46.480;6.834;2023-03-01T03:21:31;93669.94;;;20.78;31.60
48035;BME280;33812;46.480;6.834;2023-03-01T03:25:33;93660.88;;;20.78;31.23
48035;BME280;33812;46.480;6.834;2023-03-01T03:29:37;93656.88;;;20.79;31.27
48035;BME280;33812;46.480;6.834;2023-03-01T03:33:41;93659.31;;;20.77;31.22
48035;BME280;33812;46.480;6.834;2023-03-01T03:37:43;93646.81;;;20.72;30.82
48035;BME280;33812;46.480;6.834;2023-03-01T03:42:02;93655.44;;;20.74;31.11
48035;BME280;33812;46.480;6.834;2023-03-01T03:46:06;93651.16;;;20.73;31.35
48035;BME280;33812;46.480;6.834;2023-03-01T03:50:13;93641.63;;;20.74;31.02
48035;BME280;33812;46.480;6.834;2023-03-01T03:54:15;93651.16;;;20.73;31.17
48035;BME280;33812;46.480;6.834;2023-03-01T03:58:18;93650.69;;;20.75;31.02
48035;BME280;33812;46.480;6.834;2023-03-01T04:02:21;93646.47;;;20.70;31.17
48035;BME280;33812;46.480;6.834;2023-03-01T04:06:24;93641.28;;;20.72;31.29
48035;BME280;33812;46.480;6.834;2023-03-01T04:10:26;93630.25;;;20.72;30.92
48035;BME280;33812;46.480;6.834;2023-03-01T04:14:28;93628.59;;;20.75;31.08
48035;BME280;33812;46.480;6.834;2023-03-01T04:18:30;93629.47;;;20.72;30.87
48035;BME280;33812;46.480;6.834;2023-03-01T04:22:33;93627.47;;;20.72;30.89
48035;BME280;33812;46.480;6.834;2023-03-01T04:26:35;93611.81;;;20.69;30.76
48035;BME280;33812;46.480;6.834;2023-03-01T04:30:39;93612.13;;;20.71;30.74
48035;BME280;33812;46.480;6.834;2023-03-01T04:34:41;93612.59;;;20.70;31.07
48035;BME280;33812;46.480;6.834;2023-03-01T04:38:45;93603.41;;;20.73;30.92
48035;BME280;33812;46.480;6.834;2023-03-01T04:42:49;93605.06;;;20.70;31.10
48035;BME280;33812;46.480;6.834;2023-03-01T04:46:52;93612.91;;;20.72;31.02
48035;BME280;33812;46.480;6.834;2023-03-01T04:50:54;93607.50;;;20.68;30.85
48035;BME280;33812;46.480;6.834;2023-03-01T04:54:57;93605.50;;;20.69;31.15
48035;BME280;33812;46.480;6.834;2023-03-01T04:59:00;93602.72;;;20.69;31.10
48035;BME280;33812;46.480;6.834;2023-03-01T05:03:06;93605.94;;;20.67;30.86
48035;BME280;33812;46.480;6.834;2023-03-01T05:07:07;93600.84;;;20.65;30.62
48035;BME280;33812;46.480;6.834;2023-03-01T05:11:11;93600.84;;;20.65;30.62
48035;BME280;33812;46.480;6.834;2023-03-01T05:15:13;93591.78;;;20.65;30.39
48035;BME280;33812;46.480;6.834;2023-03-01T05:19:15;93599.97;;;20.69;31.14
48035;BME280;33812;46.480;6.834;2023-03-01T05:23:17;93593.34;;;20.66;31.08
48035;BME280;33812;46.480;6.834;2023-03-01T05:27:20;93585.81;;;20.66;31.02
48035;BME280;33812;46.480;6.834;2023-03-01T05:31:22;93583.50;;;20.65;31.17
48035;BME280;33812;46.480;6.834;2023-03-01T05:35:24;93585.41;;;20.68;31.17
48035;BME280;33812;46.480;6.834;2023-03-01T05:39:29;93587.84;;;20.66;32.16
48035;BME280;33812;46.480;6.834;2023-03-01T05:43:36;93586.59;;;20.67;32.26
48035;BME280;33812;46.480;6.834;2023-03-01T05:47:39;93585.72;;;20.70;32.31
48035;BME280;33812;46.480;6.834;2023-03-01T05:51:48;93581.44;;;20.69;32.31
48035;BME280;33812;46.480;6.834;2023-03-01T05:55:50;93580.66;;;20.69;32.36
48035;BME280;33812;46.480;6.834;2023-03-01T05:59:53;93587.06;;;20.65;32.56
48035;BME280;33812;46.480;6.834;2023-03-01T06:03:56;93583.84;;;20.67;32.01
48035;BME280;33812;46.480;6.834;2023-03-01T06:07:59;93582.75;;;20.64;31.68
48035;BME280;33812;46.480;6.834;2023-03-01T06:12:02;93580.75;;;20.65;31.37
48035;BME280;33812;46.480;6.834;2023-03-01T06:16:07;93592.28;;;20.34;27.25
48035;BME280;33812;46.480;6.834;2023-03-01T06:20:12;93591.88;;;20.48;31.36
48035;BME280;33812;46.480;6.834;2023-03-01T06:24:14;93594.28;;;19.87;27.14
48035;BME280;33812;46.480;6.834;2023-03-01T06:28:16;93605.88;;;20.41;30.04
48035;BME280;33812;46.480;6.834;2023-03-01T06:32:20;93590.13;;;20.54;31.12
48035;BME280;33812;46.480;6.834;2023-03-01T06:36:22;93600.19;;;20.61;31.52
48035;BME280;33812;46.480;6.834;2023-03-01T06:40:24;93592.22;;;20.63;31.49
48035;BME280;33812;46.480;6.834;2023-03-01T06:44:26;93591.34;;;20.66;31.68
48035;BME280;33812;46.480;6.834;2023-03-01T06:48:30;93590.59;;;20.66;31.87
48035;BME280;33812;46.480;6.834;2023-03-01T06:52:32;93581.09;;;20.67;32.30
48035;BME280;33812;46.480;6.834;2023-03-01T06:56:33;93588.38;;;20.61;32.48
48035;BME280;33812;46.480;6.834;2023-03-01T07:00:35;93591.03;;;20.64;32.11
48035;BME280;33812;46.480;6.834;2023-03-01T07:04:39;93577.97;;;20.65;31.68
48035;BME280;33812;46.480;6.834;2023-03-01T07:08:40;93573.59;;;20.68;32.07
48035;BME280;33812;46.480;6.834;2023-03-01T07:12:42;93579.53;;;20.66;31.80
48035;BME280;33812;46.480;6.834;2023-03-01T07:16:44;93575.56;;;20.67;31.86
48035;BME280;33812;46.480;6.834;2023-03-01T07:20:48;93564.50;;;20.67;32.51
48035;BME280;33812;46.480;6.834;2023-03-01T07:24:52;93561.31;;;20.69;32.90
48035;BME280;33812;46.480;6.834;2023-03-01T07:28:53;93574.69;;;20.70;32.67
48035;BME280;33812;46.480;6.834;2023-03-01T07:32:57;93572.69;;;20.71;32.49
48035;BME280;33812;46.480;6.834;2023-03-01T07:37:00;93577.34;;;20.61;30.67
48035;BME280;33812;46.480;6.834;2023-03-01T07:41:03;93560.66;;;20.64;30.03
48035;BME280;33812;46.480;6.834;2023-03-01T07:45:06;93562.53;;;20.68;30.66
48035;BME280;33812;46.480;6.834;2023-03-01T07:49:08;93558.09;;;20.70;30.56
48035;BME280;33812;46.480;6.834;2023-03-01T07:53:11;93556.56;;;20.69;30.55
48035;BME280;33812;46.480;6.834;2023-03-01T07:57:13;93557.78;;;20.68;30.50
48035;BME280;33812;46.480;6.834;2023-03-01T08:01:17;93560.56;;;20.68;30.53
48035;BME280;33812;46.480;6.834;2023-03-01T08:05:19;93559.00;;;20.67;30.61
48035;BME280;33812;46.480;6.834;2023-03-01T08:09:23;93559.78;;;20.68;30.68
48035;BME280;33812;46.480;6.834;2023-03-01T08:13:26;93561.31;;;20.69;30.23
48035;BME280;33812;46.480;6.834;2023-03-01T08:17:27;93557.78;;;20.68;30.42
48035;BME280;33812;46.480;6.834;2023-03-01T08:21:29;93559.00;;;20.67;30.81
48035;BME280;33812;46.480;6.834;2023-03-01T08:25:32;93566.09;;;20.68;30.60
48035;BME280;33812;46.480;6.834;2023-03-01T08:29:34;93566.38;;;20.70;30.78
48035;BME280;33812;46.480;6.834;2023-03-01T08:33:36;93562.09;;;20.69;30.52
48035;BME280;33812;46.480;6.834;2023-03-01T08:37:38;93562.88;;;20.70;30.76
48035;BME280;33812;46.480;6.834;2023-03-01T08:41:41;93553.03;;;20.69;30.38
48035;BME280;33812;46.480;6.834;2023-03-01T08:45:42;93553.81;;;20.69;30.35
48035;BME280;33812;46.480;6.834;2023-03-01T08:49:44;93548.28;;;20.69;30.59
48035;BME280;33812;46.480;6.834;2023-03-01T08:53:46;93557.00;;;20.68;30.63
48035;BME280;33812;46.480;6.834;2023-03-01T08:57:50;93546.75;;;20.68;30.35
48035;BME280;33812;46.480;6.834;2023-03-01T09:01:51;93547.06;;;20.70;30.60
48035;BME280;33812;46.480;6.834;2023-03-01T09:05:53;93540.78;;;20.70;30.33
48035;BME280;33812;46.480;6.834;2023-03-01T09:10:01;93534.47;;;20.69;30.32
48035;BME280;33812;46.480;6.834;2023-03-01T09:14:05;93536.91;;;20.67;30.11
48035;BME280;33812;46.480;6.834;2023-03-01T09:18:07;93545.53;;;20.69;30.37
48035;BME280;33812;46.480;6.834;2023-03-01T09:22:09;93540.00;;;20.69;30.35
48035;BME280;33812;46.480;6.834;2023-03-01T09:26:16;93538.03;;;20.70;30.31
48035;BME280;33812;46.480;6.834;2023-03-01T09:30:22;93538.03;;;20.70;30.55
48035;BME280;33812;46.480;6.834;2023-03-01T09:34:24;93534.03;;;20.71;30.37
48035;BME280;33812;46.480;6.834;2023-03-01T09:38:26;93537.25;;;20.69;30.35
48035;BME280;33812;46.480;6.834;2023-03-01T09:42:29;93540.34;;;20.71;30.44
48035;BME280;33812;46.480;6.834;2023-03-01T09:46:40;93539.13;;;20.72;30.26
48035;BME280;33812;46.480;6.834;2023-03-01T09:50:43;93528.06;;;20.72;30.65
48035;BME280;33812;46.480;6.834;2023-03-01T09:54:48;93540.34;;;20.71;30.33
48035;BME280;33812;46.480;6.834;2023-03-01T09:58:53;93531.72;;;20.69;30.32
48035;BME280;33812;46.480;6.834;2023-03-01T10:03:04;93521.00;;;20.71;30.36
48035;BME280;33812;46.480;6.834;2023-03-01T10:07:21;93522.53;;;20.72;30.21
48035;BME280;33812;46.480;6.834;2023-03-01T10:11:30;93524.22;;;20.70;30.17
48035;BME280;33812;46.480;6.834;2023-03-01T10:15:43;93517.91;;;20.69;30.10
48035;BME280;33812;46.480;6.834;2023-03-01T10:19:47;93524.09;;;20.73;29.91
48035;BME280;33812;46.480;6.834;2023-03-01T10:23:50;93516.56;;;20.74;29.89
48035;BME280;33812;46.480;6.834;2023-03-01T10:27:54;93517.38;;;20.74;30.05
48035;BME280;33812;46.480;6.834;2023-03-01T10:32:00;93512.63;;;20.75;29.94
48035;BME280;33812;46.480;6.834;2023-03-01T10:36:08;93516.91;;;20.76;30.16
48035;BME280;33812;46.480;6.834;2023-03-01T10:40:10;93510.59;;;20.75;30.06
48035;BME280;33812;46.480;6.834;2023-03-01T10:44:35;93505.88;;;20.76;29.88
48035;BME280;33812;46.480;6.834;2023-03-01T10:48:37;93503.44;;;20.78;30.07
48035;BME280;33812;46.480;6.834;2023-03-01T10:52:41;93505.09;;;20.75;29.84
48035;BME280;33812;46.480;6.834;2023-03-01T10:56:48;93511.28;;;20.80;29.84
48035;BME280;33812;46.480;6.834;2023-03-01T11:00:52;93498.69;;;20.78;29.98
48035;BME280;33812;46.480;6.834;2023-03-01T11:04:59;93493.94;;;20.79;30.17
48035;BME280;33812;46.480;6.834;2023-03-01T11:09:13;93489.19;;;20.80;30.42
48035;BME280;33812;46.480;6.834;2023-03-01T11:13:17;93497.03;;;20.81;30.10
48035;BME280;33812;46.480;6.834;2023-03-01T11:17:23;93487.97;;;20.81;30.08
48035;BME280;33812;46.480;6.834;2023-03-01T11:21:28;93480.78;;;20.83;30.24
48035;BME280;33812;46.480;6.834;2023-03-01T11:25:37;93478.81;;;20.84;29.89
48035;BME280;33812;46.480;6.834;2023-03-01T11:29:44;93473.28;;;20.84;30.05
48035;BME280;33812;46.480;6.834;2023-03-01T11:33:49;93460.34;;;20.81;30.27
48035;BME280;33812;46.480;6.834;2023-03-01T11:37:59;93458.69;;;20.83;30.03
48035;BME280;33812;46.480;6.834;2023-03-01T11:42:13;93467.75;;;20.84;30.17
48035;BME280;33812;46.480;6.834;2023-03-01T11:46:31;93459.78;;;20.86;30.29
48035;BME280;33812;46.480;6.834;2023-03-01T11:50:40;93457.81;;;20.86;30.34
48035;BME280;33812;46.480;6.834;2023-03-01T11:54:50;93446.75;;;20.86;30.01
48035;BME280;33812;46.480;6.834;2023-03-01T11:59:25;93453.81;;;20.87;30.42
48035;BME280;33812;46.480;6.834;2023-03-01T12:03:36;93457.81;;;20.86;30.26
48035;BME280;33812;46.480;6.834;2023-03-01T12:07:48;93448.75;;;20.86;30.13
48035;BME280;33812;46.480;6.834;2023-03-01T12:12:25;93441.69;;;20.85;30.33
48035;BME280;33812;46.480;6.834;2023-03-01T12:16:40;93444.31;;;20.88;30.32
48035;BME280;33812;46.480;6.834;2023-03-01T12:20:58;93445.53;;;20.87;30.38
48035;BME280;33812;46.480;6.834;2023-03-01T12:25:12;93442.00;;;20.87;30.36
48035;BME280;33812;46.480;6.834;2023-03-01T12:29:25;93432.16;;;20.86;30.20
48035;BME280;33812;46.480;6.834;2023-03-01T12:33:39;93424.53;;;20.90;30.31
48035;BME280;33812;46.480;6.834;2023-03-01T12:37:54;93426.63;;;20.86;30.22
48035;BME280;33812;46.480;6.834;2023-03-01T12:42:04;93423.75;;;20.89;30.32
48035;BME280;33812;46.480;6.834;2023-03-01T12:46:14;93415.94;;;20.88;30.32
48035;BME280;33812;46.480;6.834;2023-03-01T12:50:24;93409.94;;;20.89;30.37
48035;BME280;33812;46.480;6.834;2023-03-01T12:54:30;93415.47;;;20.89;30.32
48035;BME280;33812;46.480;6.834;2023-03-01T12:58:35;93410.72;;;20.90;30.32
48035;BME280;33812;46.480;6.834;2023-03-01T13:02:41;93413.94;;;20.88;30.24
48035;BME280;33812;46.480;6.834;2023-03-01T13:06:58;93417.50;;;20.89;30.16
48035;BME280;33812;46.480;6.834;2023-03-01T13:11:11;93412.38;;;20.87;30.12
48035;BME280;33812;46.480;6.834;2023-03-01T13:15:32;93403.69;;;20.89;30.45
48035;BME280;33812;46.480;6.834;2023-03-01T13:19:35;93402.91;;;20.88;30.22
48035;BME280;33812;46.480;6.834;2023-03-01T13:23:39;93405.22;;;20.90;30.24
48035;BME280;33812;46.480;6.834;2023-03-01T13:27:42;93406.75;;;20.91;30.29
48035;BME280;33812;46.480;6.834;2023-03-01T13:31:58;93406.75;;;20.91;30.29
48035;BME280;33812;46.480;6.834;2023-03-01T13:36:01;93392.94;;;20.91;30.03
48035;BME280;33812;46.480;6.834;2023-03-01T13:44:47;93391.41;;;20.90;30.39
48035;BME280;33812;46.480;6.834;2023-03-01T13:48:51;93391.41;;;20.90;30.36
48035;BME280;33812;46.480;6.834;2023-03-01T13:52:56;93397.69;;;20.90;30.60
48035;BME280;33812;46.480;6.834;2023-03-01T13:57:00;93403.13;;;20.94;31.39
48035;BME280;33812;46.480;6.834;2023-03-01T14:01:06;93404.75;;;20.92;30.88
48035;BME280;33812;46.480;6.834;2023-03-01T14:05:09;93411.44;;;20.94;31.01
48035;BME280;33812;46.480;6.834;2023-03-01T14:09:16;93414.19;;;20.94;31.16
48035;BME280;33812;46.480;6.834;2023-03-01T14:13:36;93392.09;;;20.94;31.17
48035;BME280;33812;46.480;6.834;2023-03-01T14:17:55;93392.84;;;20.95;30.83
48035;BME280;33812;46.480;6.834;2023-03-01T14:22:16;93388.09;;;20.95;31.07
48035;BME280;33812;46.480;6.834;2023-03-01T14:26:22;93384.09;;;20.96;31.32
48035;BME280;33812;46.480;6.834;2023-03-01T14:30:26;93386.56;;;20.94;31.10
48035;BME280;33812;46.480;6.834;2023-03-01T14:34:30;93388.88;;;20.96;31.28
48035;BME280;33812;46.480;6.834;2023-03-01T14:38:36;93382.56;;;20.95;31.28
48035;BME280;33812;46.480;6.834;2023-03-01T14:42:37;93385.34;;;20.95;31.33
48035;BME280;33812;46.480;6.834;2023-03-01T14:46:40;93390.84;;;20.95;31.37
48035;BME280;33812;46.480;6.834;2023-03-01T14:50:44;93395.59;;;20.95;31.27
48035;BME280;33812;46.480;6.834;2023-03-01T14:54:48;93383.81;;;20.94;31.24
48035;BME280;33812;46.480;6.834;2023-03-01T14:58:52;93392.84;;;20.95;31.27
48035;BME280;33812;46.480;6.834;2023-03-01T15:02:55;93400.38;;;20.94;31.07
48035;BME280;33812;46.480;6.834;2023-03-01T15:06:59;93405.91;;;20.94;31.29
48035;BME280;33812;46.480;6.834;2023-03-01T15:11:15;93405.13;;;20.94;31.00
48035;BME280;33812;46.480;6.834;2023-03-01T15:15:21;93392.50;;;20.93;30.89
48035;BME280;33812;46.480;6.834;2023-03-01T15:19:24;93379.44;;;20.93;31.00
48035;BME280;33812;46.480;6.834;2023-03-01T15:23:31;93384.22;;;20.93;30.89
48035;BME280;33812;46.480;6.834;2023-03-01T15:27:33;93383.03;;;20.94;30.70
48035;BME280;33812;46.480;6.834;2023-03-01T15:31:37;93385.78;;;20.94;31.08
48035;BME280;33812;46.480;6.834;2023-03-01T15:35:41;93396.03;;;20.93;30.89
48035;BME280;33812;46.480;6.834;2023-03-01T15:39:52;93393.25;;;20.93;30.82
48035;BME280;33812;46.480;6.834;2023-03-01T15:43:55;93399.22;;;20.92;30.54
48035;BME280;33812;46.480;6.834;2023-03-01T15:47:57;93393.25;;;20.93;30.50
48035;BME280;33812;46.480;6.834;2023-03-01T15:52:03;93388.19;;;20.92;30.50
48035;BME280;33812;46.480;6.834;2023-03-01T15:56:06;93396.84;;;20.94;30.59
48035;BME280;33812;46.480;6.834;2023-03-01T16:00:10;93396.59;;;20.88;30.38
48035;BME280;33812;46.480;6.834;2023-03-01T16:04:16;93399.69;;;20.90;30.47
48035;BME280;33812;46.480;6.834;2023-03-01T16:08:23;93390.44;;;20.84;30.61
48035;BME280;33812;46.480;6.834;2023-03-01T16:12:26;93397.81;;;20.87;30.76
48035;BME280;33812;46.480;6.834;2023-03-01T16:16:27;93389.97;;;20.85;30.19
48035;BME280;33812;46.480;6.834;2023-03-01T16:20:29;93383.34;;;20.83;30.65
48035;BME280;33812;46.480;6.834;2023-03-01T16:24:32;93395.06;;;20.87;31.20
48035;BME280;33812;46.480;6.834;2023-03-01T16:28:37;93381.69;;;20.85;31.38
48035;BME280;33812;46.480;6.834;2023-03-01T16:32:39;93392.28;;;20.87;31.43
48035;BME280;33812;46.480;6.834;2023-03-01T16:36:42;93392.28;;;20.87;32.37
48035;BME280;33812;46.480;6.834;2023-03-01T16:40:47;93391.84;;;20.88;31.99
48035;BME280;33812;46.480;6.834;2023-03-01T16:44:54;93400.59;;;20.87;32.50
48035;BME280;33812;46.480;6.834;2023-03-01T16:48:56;93399.69;;;20.90;32.69
48035;BME280;33812;46.480;6.834;2023-03-01T16:52:58;93399.34;;;20.88;32.43
48035;BME280;33812;46.480;6.834;2023-03-01T16:56:59;93401.03;;;20.85;31.93
48035;BME280;33812;46.480;6.834;2023-03-01T17:01:07;93409.31;;;20.85;31.62
48035;BME280;33812;46.480;6.834;2023-03-01T17:05:11;93411.63;;;20.87;31.97
48035;BME280;33812;46.480;6.834;2023-03-01T17:09:12;93403.00;;;20.85;31.58
48035;BME280;33812;46.480;6.834;2023-03-01T17:13:14;93412.53;;;20.84;31.74
48035;BME280;33812;46.480;6.834;2023-03-01T17:17:17;93413.16;;;20.88;31.82
48035;BME280;33812;46.480;6.834;2023-03-01T17:21:19;93413.16;;;20.88;31.95
48035;BME280;33812;46.480;6.834;2023-03-01T17:25:21;93420.38;;;20.85;32.80
48035;BME280;33812;46.480;6.834;2023-03-01T17:29:23;93431.41;;;20.85;33.08
48035;BME280;33812;46.480;6.834;2023-03-01T17:33:26;93424.00;;;20.82;33.13
48035;BME280;33812;46.480;6.834;2023-03-01T17:37:32;93429.09;;;20.84;33.19
48035;BME280;33812;46.480;6.834;2023-03-01T17:41:34;93435.38;;;20.84;33.48
48035;BME280;33812;46.480;6.834;2023-03-01T17:45:36;93437.69;;;20.86;33.04
48035;BME280;33812;46.480;6.834;2023-03-01T17:53:47;93445.66;;;20.84;32.76
48035;BME280;33812;46.480;6.834;2023-03-01T17:57:49;93444.44;;;20.85;33.55
48035;BME280;33812;46.480;6.834;2023-03-01T18:01:51;93449.97;;;20.85;33.46
48035;BME280;33812;46.480;6.834;2023-03-01T18:05:53;93456.56;;;20.87;33.16
48035;BME280;33812;46.480;6.834;2023-03-01T18:09:57;93447.53;;;20.87;33.11
48035;BME280;33812;46.480;6.834;2023-03-01T18:13:59;93451.06;;;20.87;32.60
48035;BME280;33812;46.480;6.834;2023-03-01T18:18:01;93442.13;;;20.83;31.51
48035;BME280;33812;46.480;6.834;2023-03-01T18:22:03;93451.63;;;20.69;32.65
48035;BME280;33812;46.480;6.834;2023-03-01T18:26:07;93450.41;;;20.83;32.16
48035;BME280;33812;46.480;6.834;2023-03-01T18:30:10;93460.69;;;20.83;32.57
48035;BME280;33812;46.480;6.834;2023-03-01T18:34:12;93463.78;;;20.85;32.65
48035;BME280;33812;46.480;6.834;2023-03-01T18:38:14;93463.00;;;20.84;32.14
48035;BME280;33812;46.480;6.834;2023-03-01T18:42:18;93461.00;;;20.85;31.59
48035;BME280;33812;46.480;6.834;2023-03-01T18:46:21;93458.25;;;20.85;32.04
48035;BME280;33812;46.480;6.834;2023-03-01T18:50:23;93454.59;;;20.88;33.47
48035;BME280;33812;46.480;6.834;2023-03-01T18:54:25;93452.16;;;20.90;32.94
48035;BME280;33812;46.480;6.834;2023-03-01T18:58:28;93458.13;;;20.88;32.82
48035;BME280;33812;46.480;6.834;2023-03-01T19:02:30;93462.88;;;20.88;33.15
48035;BME280;33812;46.480;6.834;2023-03-01T19:06:33;93454.16;;;20.89;33.09
48035;BME280;33812;46.480;6.834;2023-03-01T19:10:35;93456.16;;;20.89;33.57
48035;BME280;33812;46.480;6.834;2023-03-01T19:14:38;93448.63;;;20.89;33.21
48035;BME280;33812;46.480;6.834;2023-03-01T19:18:45;93438.34;;;20.90;33.72
48035;BME280;33812;46.480;6.834;2023-03-01T19:22:49;93435.63;;;20.12;28.38
48035;BME280;33812;46.480;6.834;2023-03-01T19:26:53;93445.78;;;16.21;26.86
48035;BME280;33812;46.480;6.834;2023-03-01T19:30:59;93441.50;;;18.58;27.90
48035;BME280;33812;46.480;6.834;2023-03-01T19:35:02;93429.44;;;19.78;27.49
48035;BME280;33812;46.480;6.834;2023-03-01T19:39:05;93435.81;;;20.17;27.34
48035;BME280;33812;46.480;6.834;2023-03-01T19:43:07;93420.81;;;20.32;27.45
48035;BME280;33812;46.480;6.834;2023-03-01T19:47:10;93419.41;;;20.40;29.84
48035;BME280;33812;46.480;6.834;2023-03-01T19:51:12;93419.16;;;20.47;30.70
48035;BME280;33812;46.480;6.834;2023-03-01T19:55:13;93423.38;;;20.52;31.49
48035;BME280;33812;46.480;6.834;2023-03-01T19:59:16;93424.47;;;20.54;32.36
48035;BME280;33812;46.480;6.834;2023-03-01T20:03:25;93437.19;;;20.52;32.31
48035;BME280;33812;46.480;6.834;2023-03-01T20:07:27;93433.88;;;20.57;33.21
48035;BME280;33812;46.480;6.834;2023-03-01T20:11:29;93427.56;;;20.57;34.44
48035;BME280;33812;46.480;6.834;2023-03-01T20:15:31;93425.91;;;20.59;34.42
48035;BME280;33812;46.480;6.834;2023-03-01T20:19:34;93439.72;;;20.59;34.34
48035;BME280;33812;46.480;6.834;2023-03-01T20:23:36;93429.78;;;20.62;34.19
48035;BME280;33812;46.480;6.834;2023-03-01T20:27:37;93436.50;;;20.61;34.42
48035;BME280;33812;46.480;6.834;2023-03-01T20:31:39;93437.72;;;20.60;34.54
48035;BME280;33812;46.480;6.834;2023-03-01T20:35:43;93432.53;;;20.62;34.75
48035;BME280;33812;46.480;6.834;2023-03-01T20:39:44;93433.66;;;20.64;34.72
48035;BME280;33812;46.480;6.834;2023-03-01T20:43:46;93431.31;;;20.63;34.58
48035;BME280;33812;46.480;6.834;2023-03-01T20:47:54;93425.78;;;20.63;34.32
48035;BME280;33812;46.480;6.834;2023-03-01T20:51:57;93417.94;;;20.61;34.32
48035;BME280;33812;46.480;6.834;2023-03-01T20:56:01;93416.53;;;20.57;33.39
48035;BME280;33812;46.480;6.834;2023-03-01T21:00:03;93425.59;;;20.57;33.19
48035;BME280;33812;46.480;6.834;2023-03-01T21:04:06;93420.50;;;20.56;33.59
48035;BME280;33812;46.480;6.834;2023-03-01T21:08:10;93418.50;;;20.56;33.48
48035;BME280;33812;46.480;6.834;2023-03-01T21:12:12;93423.56;;;20.58;33.45
48035;BME280;33812;46.480;6.834;2023-03-01T21:16:14;93415.28;;;20.58;33.46
48035;BME280;33812;46.480;6.834;2023-03-01T21:20:18;93411.78;;;20.57;33.54
48035;BME280;33812;46.480;6.834;2023-03-01T21:24:21;93409.78;;;20.58;33.48
48035;BME280;33812;46.480;6.834;2023-03-01T21:28:23;93394.44;;;20.57;33.44
48035;BME280;33812;46.480;6.834;2023-03-01T21:32:26;93398.31;;;20.59;33.16
48035;BME280;33812;46.480;6.834;2023-03-01T21:40:36;93388.91;;;20.57;33.33
48035;BME280;33812;46.480;6.834;2023-03-01T21:44:40;93392.91;;;20.56;33.02
48035;BME280;33812;46.480;6.834;2023-03-01T21:48:43;93390.13;;;20.56;33.22